EWG9LC EDDG-LOWI
Flight info
| Callsign | EWG9LC |
|---|---|
| Flight time | 0h 59m |
| Altitude | 35000 |
| Route | DOMEG1E/07 DOMEG Z841 GMH Q603 TESGA L603 BOMBI/N0455F310 T104 WLD M867 BAVAX Z106 MANAL M736 TULSI TULSI3A |
| Aircraft | A319/M-SDE3FGHIRWY/LB1 |
Departure
| Time | 2026-05-08 18:02 |
|---|---|
| Airport | Münster Osnabrück Airport (EDDG) |
Arrival
| Time | 2026-05-08 19:01 |
|---|---|
| Airport | Innsbruck Airport (LOWI) |
| Time | Latitude | Longitude | Altitude | Speed | Heading |
|---|---|---|---|---|---|
| 2026-05-08 17:36 | 52.13158 | 7.69305 | 163 ft | 0 kts | 194° |
| 2026-05-08 17:54 | 52.13157 | 7.69305 | 163 ft | 0 kts | 195° |
| 2026-05-08 17:54 | 52.13151 | 7.69299 | 163 ft | 2 kts | 222° |
| 2026-05-08 17:55 | 52.13172 | 7.69272 | 163 ft | 7 kts | 359° |
| 2026-05-08 17:55 | 52.13200 | 7.69242 | 163 ft | 7 kts | 301° |
| 2026-05-08 17:55 | 52.13183 | 7.69114 | 163 ft | 9 kts | 251° |
| 2026-05-08 17:55 | 52.13161 | 7.68996 | 163 ft | 11 kts | 268° |
| 2026-05-08 17:56 | 52.13218 | 7.68923 | 163 ft | 12 kts | 346° |
| 2026-05-08 17:56 | 52.13294 | 7.68877 | 163 ft | 9 kts | 340° |
| 2026-05-08 17:56 | 52.13334 | 7.68848 | 163 ft | 10 kts | 322° |
| 2026-05-08 17:56 | 52.13341 | 7.68742 | 161 ft | 12 kts | 245° |
| 2026-05-08 17:57 | 52.13301 | 7.68540 | 160 ft | 15 kts | 251° |
| 2026-05-08 17:57 | 52.13266 | 7.68373 | 160 ft | 16 kts | 251° |
| 2026-05-08 17:57 | 52.13228 | 7.68197 | 160 ft | 16 kts | 251° |
| 2026-05-08 17:57 | 52.13190 | 7.68016 | 160 ft | 17 kts | 251° |
| 2026-05-08 17:58 | 52.13163 | 7.67888 | 160 ft | 17 kts | 251° |
| 2026-05-08 17:58 | 52.13107 | 7.67629 | 160 ft | 18 kts | 254° |
| 2026-05-08 17:58 | 52.13066 | 7.67432 | 160 ft | 18 kts | 250° |
| 2026-05-08 17:58 | 52.13027 | 7.67230 | 160 ft | 18 kts | 265° |
| 2026-05-08 17:59 | 52.13060 | 7.67094 | 160 ft | 5 kts | 316° |
| 2026-05-08 17:59 | 52.13063 | 7.67090 | 160 ft | 0 kts | 317° |
| 2026-05-08 17:59 | 52.13079 | 7.67069 | 160 ft | 5 kts | 326° |
| 2026-05-08 18:00 | 52.13124 | 7.67039 | 160 ft | 8 kts | 343° |
| 2026-05-08 18:00 | 52.13164 | 7.67063 | 161 ft | 0 kts | 72° |
| 2026-05-08 18:01 | 52.13174 | 7.67115 | 162 ft | 27 kts | 71° |
| 2026-05-08 18:01 | 52.13415 | 7.68254 | 160 ft | 129 kts | 71° |
| 2026-05-08 18:01 | 52.13752 | 7.69857 | 496 ft | 157 kts | 74° |
| 2026-05-08 18:02 | 52.14085 | 7.71448 | 1354 ft | 150 kts | 72° |
| 2026-05-08 18:02 | 52.14303 | 7.72504 | 1934 ft | 148 kts | 74° |
| 2026-05-08 18:02 | 52.14639 | 7.74123 | 2544 ft | 161 kts | 74° |
| 2026-05-08 18:02 | 52.14991 | 7.75894 | 3183 ft | 174 kts | 73° |
| 2026-05-08 18:03 | 52.15521 | 7.78583 | 3943 ft | 201 kts | 81° |
| 2026-05-08 18:03 | 52.15383 | 7.80887 | 4609 ft | 215 kts | 114° |
| 2026-05-08 18:03 | 52.14492 | 7.82886 | 5267 ft | 231 kts | 142° |
| 2026-05-08 18:03 | 52.12999 | 7.84004 | 5907 ft | 247 kts | 164° |
| 2026-05-08 18:04 | 52.11884 | 7.84558 | 6337 ft | 258 kts | 163° |
| 2026-05-08 18:04 | 52.10144 | 7.85303 | 7123 ft | 267 kts | 175° |
| 2026-05-08 18:04 | 52.07708 | 7.84646 | 8276 ft | 275 kts | 202° |
| 2026-05-08 18:04 | 52.05941 | 7.83410 | 9126 ft | 281 kts | 204° |
| 2026-05-08 18:05 | 52.04113 | 7.82274 | 9941 ft | 286 kts | 190° |
| 2026-05-08 18:05 | 52.02146 | 7.82438 | 10720 ft | 292 kts | 165° |
| 2026-05-08 18:05 | 52.00841 | 7.83118 | 11092 ft | 303 kts | 160° |
| 2026-05-08 18:05 | 51.98107 | 7.84800 | 11720 ft | 327 kts | 160° |
| 2026-05-08 18:06 | 51.95894 | 7.86116 | 12195 ft | 344 kts | 161° |
| 2026-05-08 18:06 | 51.93638 | 7.87388 | 12885 ft | 351 kts | 162° |
| 2026-05-08 18:06 | 51.91314 | 7.88652 | 13649 ft | 355 kts | 162° |
| 2026-05-08 18:06 | 51.88963 | 7.89899 | 14394 ft | 360 kts | 163° |
| 2026-05-08 18:07 | 51.87355 | 7.90740 | 14899 ft | 362 kts | 163° |
| 2026-05-08 18:07 | 51.84941 | 7.91991 | 15648 ft | 366 kts | 163° |
| 2026-05-08 18:07 | 51.82499 | 7.93248 | 16358 ft | 370 kts | 163° |
| 2026-05-08 18:07 | 51.79195 | 7.94941 | 17306 ft | 374 kts | 164° |
| 2026-05-08 18:08 | 51.76707 | 7.96210 | 17982 ft | 378 kts | 164° |
| 2026-05-08 18:08 | 51.74181 | 7.97496 | 18637 ft | 381 kts | 164° |
| 2026-05-08 18:08 | 51.71652 | 7.98781 | 19295 ft | 384 kts | 164° |
| 2026-05-08 18:08 | 51.69073 | 8.00090 | 19929 ft | 387 kts | 164° |
| 2026-05-08 18:09 | 51.66504 | 8.01391 | 20547 ft | 391 kts | 164° |
| 2026-05-08 18:09 | 51.63885 | 8.02718 | 21147 ft | 394 kts | 164° |
| 2026-05-08 18:09 | 51.61245 | 8.04053 | 21734 ft | 397 kts | 163° |
| 2026-05-08 18:09 | 51.59505 | 8.04932 | 22127 ft | 399 kts | 163° |
| 2026-05-08 18:10 | 51.55955 | 8.06724 | 22874 ft | 403 kts | 163° |
| 2026-05-08 18:10 | 51.53264 | 8.08081 | 23410 ft | 407 kts | 163° |
| 2026-05-08 18:10 | 51.50546 | 8.09449 | 23935 ft | 410 kts | 163° |
| 2026-05-08 18:10 | 51.47817 | 8.10821 | 24452 ft | 413 kts | 164° |
| 2026-05-08 18:11 | 51.46006 | 8.11731 | 24793 ft | 415 kts | 164° |
| 2026-05-08 18:11 | 51.42314 | 8.13583 | 25469 ft | 419 kts | 163° |
| 2026-05-08 18:11 | 51.39543 | 8.14971 | 25952 ft | 422 kts | 163° |
| 2026-05-08 18:11 | 51.36732 | 8.16377 | 26433 ft | 425 kts | 164° |
| 2026-05-08 18:12 | 51.33899 | 8.17793 | 26910 ft | 428 kts | 164° |
| 2026-05-08 18:12 | 51.31047 | 8.19215 | 27374 ft | 431 kts | 163° |
| 2026-05-08 18:12 | 51.28169 | 8.20650 | 27834 ft | 434 kts | 163° |
| 2026-05-08 18:12 | 51.25282 | 8.22086 | 28290 ft | 437 kts | 164° |
| 2026-05-08 18:13 | 51.22364 | 8.23536 | 28747 ft | 440 kts | 164° |
| 2026-05-08 18:13 | 51.19437 | 8.24990 | 29199 ft | 443 kts | 164° |
| 2026-05-08 18:13 | 51.16492 | 8.26448 | 29634 ft | 445 kts | 163° |
| 2026-05-08 18:13 | 51.13541 | 8.27963 | 30057 ft | 449 kts | 160° |
| 2026-05-08 18:14 | 51.10803 | 8.30320 | 30549 ft | 451 kts | 148° |
| 2026-05-08 18:14 | 51.08197 | 8.33075 | 31192 ft | 448 kts | 147° |
| 2026-05-08 18:14 | 51.05620 | 8.35820 | 31749 ft | 446 kts | 147° |
| 2026-05-08 18:14 | 51.03014 | 8.38569 | 32250 ft | 445 kts | 148° |
| 2026-05-08 18:15 | 51.00431 | 8.41267 | 32733 ft | 445 kts | 148° |
| 2026-05-08 18:15 | 50.97848 | 8.43945 | 33211 ft | 444 kts | 148° |
| 2026-05-08 18:15 | 50.96112 | 8.45735 | 33514 ft | 444 kts | 148° |
| 2026-05-08 18:15 | 50.92658 | 8.49284 | 34027 ft | 446 kts | 148° |
| 2026-05-08 18:16 | 50.90061 | 8.51942 | 34345 ft | 448 kts | 148° |
| 2026-05-08 18:16 | 50.88307 | 8.53735 | 34550 ft | 449 kts | 148° |
| 2026-05-08 18:16 | 50.85646 | 8.56450 | 34822 ft | 451 kts | 148° |
| 2026-05-08 18:16 | 50.82116 | 8.60046 | 35059 ft | 454 kts | 148° |
| 2026-05-08 18:17 | 50.76818 | 8.65427 | 35065 ft | 454 kts | 149° |
| 2026-05-08 18:17 | 50.71503 | 8.70811 | 35073 ft | 454 kts | 149° |
| 2026-05-08 18:18 | 50.67063 | 8.75297 | 35070 ft | 454 kts | 149° |
| 2026-05-08 18:18 | 50.60892 | 8.81517 | 35064 ft | 454 kts | 149° |
| 2026-05-08 18:19 | 50.55580 | 8.86853 | 35062 ft | 454 kts | 149° |
| 2026-05-08 18:19 | 50.50258 | 8.92185 | 35073 ft | 454 kts | 149° |
| 2026-05-08 18:20 | 50.44954 | 8.97483 | 35071 ft | 454 kts | 149° |
| 2026-05-08 18:20 | 50.39615 | 9.02806 | 35056 ft | 453 kts | 149° |
| 2026-05-08 18:21 | 50.34318 | 9.08069 | 35060 ft | 453 kts | 149° |
| 2026-05-08 18:21 | 50.28995 | 9.13345 | 35059 ft | 453 kts | 149° |
| 2026-05-08 18:22 | 50.23669 | 9.18611 | 35053 ft | 453 kts | 149° |
| 2026-05-08 18:22 | 50.19222 | 9.22997 | 35055 ft | 453 kts | 149° |
| 2026-05-08 18:23 | 50.13002 | 9.29115 | 35049 ft | 453 kts | 149° |
| 2026-05-08 18:23 | 50.07677 | 9.34337 | 35066 ft | 453 kts | 149° |
| 2026-05-08 18:24 | 50.02353 | 9.39544 | 35054 ft | 453 kts | 149° |
| 2026-05-08 18:24 | 49.96965 | 9.44801 | 35054 ft | 453 kts | 149° |
| 2026-05-08 18:25 | 49.92544 | 9.49103 | 35060 ft | 453 kts | 149° |
| 2026-05-08 18:25 | 49.87184 | 9.54306 | 35062 ft | 453 kts | 149° |
| 2026-05-08 18:26 | 49.80933 | 9.60358 | 35057 ft | 453 kts | 149° |
| 2026-05-08 18:26 | 49.75608 | 9.65499 | 35054 ft | 453 kts | 150° |
| 2026-05-08 18:27 | 49.72011 | 9.68964 | 35059 ft | 453 kts | 150° |
| 2026-05-08 18:27 | 49.64881 | 9.75812 | 35055 ft | 453 kts | 150° |
| 2026-05-08 18:28 | 49.59509 | 9.80957 | 35056 ft | 453 kts | 150° |
| 2026-05-08 18:28 | 49.56838 | 9.83510 | 34893 ft | 454 kts | 150° |
| 2026-05-08 18:28 | 49.55065 | 9.85202 | 34682 ft | 454 kts | 150° |
| 2026-05-08 18:29 | 49.52393 | 9.87750 | 34370 ft | 454 kts | 150° |
| 2026-05-08 18:29 | 49.48815 | 9.91159 | 33968 ft | 454 kts | 150° |
| 2026-05-08 18:29 | 49.46130 | 9.93711 | 33670 ft | 454 kts | 150° |
| 2026-05-08 18:29 | 49.44329 | 9.95422 | 33467 ft | 454 kts | 150° |
| 2026-05-08 18:30 | 49.40753 | 9.98814 | 33033 ft | 454 kts | 150° |
| 2026-05-08 18:30 | 49.38079 | 10.01347 | 32679 ft | 454 kts | 150° |
| 2026-05-08 18:30 | 49.35384 | 10.03899 | 32325 ft | 454 kts | 150° |
| 2026-05-08 18:30 | 49.32716 | 10.06420 | 31965 ft | 455 kts | 150° |
| 2026-05-08 18:31 | 49.30020 | 10.08963 | 31602 ft | 456 kts | 150° |
| 2026-05-08 18:31 | 49.27326 | 10.11502 | 31245 ft | 456 kts | 150° |
| 2026-05-08 18:31 | 49.24648 | 10.14023 | 31074 ft | 455 kts | 150° |
| 2026-05-08 18:31 | 49.21960 | 10.16548 | 31072 ft | 455 kts | 151° |
| 2026-05-08 18:32 | 49.16632 | 10.21821 | 31068 ft | 457 kts | 146° |
| 2026-05-08 18:32 | 49.12508 | 10.26936 | 31063 ft | 459 kts | 140° |
| 2026-05-08 18:33 | 49.07265 | 10.35058 | 31057 ft | 461 kts | 135° |
| 2026-05-08 18:33 | 49.02844 | 10.42205 | 31058 ft | 461 kts | 135° |
| 2026-05-08 18:34 | 48.99162 | 10.48108 | 31053 ft | 461 kts | 136° |
| 2026-05-08 18:34 | 48.93957 | 10.56392 | 31051 ft | 461 kts | 136° |
| 2026-05-08 18:35 | 48.89523 | 10.63447 | 31046 ft | 461 kts | 136° |
| 2026-05-08 18:35 | 48.85051 | 10.70542 | 31040 ft | 461 kts | 137° |
| 2026-05-08 18:36 | 48.80597 | 10.77581 | 31042 ft | 461 kts | 137° |
| 2026-05-08 18:36 | 48.76136 | 10.84589 | 31037 ft | 461 kts | 137° |
| 2026-05-08 18:37 | 48.71659 | 10.91598 | 31041 ft | 462 kts | 137° |
| 2026-05-08 18:37 | 48.67930 | 10.97421 | 31045 ft | 462 kts | 137° |
| 2026-05-08 18:38 | 48.63430 | 11.04419 | 31045 ft | 462 kts | 137° |
| 2026-05-08 18:38 | 48.58189 | 11.12582 | 31045 ft | 463 kts | 136° |
| 2026-05-08 18:39 | 48.53922 | 11.19915 | 31044 ft | 464 kts | 135° |
| 2026-05-08 18:39 | 48.49679 | 11.27289 | 31049 ft | 465 kts | 135° |
| 2026-05-08 18:40 | 48.45436 | 11.34639 | 30911 ft | 460 kts | 135° |
| 2026-05-08 18:40 | 48.43364 | 11.38225 | 30639 ft | 455 kts | 135° |
| 2026-05-08 18:40 | 48.41291 | 11.41800 | 30369 ft | 455 kts | 135° |
| 2026-05-08 18:41 | 48.39188 | 11.45419 | 30078 ft | 456 kts | 135° |
| 2026-05-08 18:41 | 48.37793 | 11.47815 | 29771 ft | 456 kts | 135° |
| 2026-05-08 18:41 | 48.35026 | 11.52570 | 29080 ft | 451 kts | 135° |
| 2026-05-08 18:41 | 48.32947 | 11.56137 | 28657 ft | 449 kts | 135° |
| 2026-05-08 18:42 | 48.30896 | 11.59650 | 28170 ft | 446 kts | 135° |
| 2026-05-08 18:42 | 48.28868 | 11.63104 | 27676 ft | 442 kts | 136° |
| 2026-05-08 18:42 | 48.26550 | 11.66147 | 27130 ft | 430 kts | 150° |
| 2026-05-08 18:42 | 48.23950 | 11.68209 | 26603 ft | 419 kts | 163° |
| 2026-05-08 18:43 | 48.21190 | 11.69405 | 26088 ft | 410 kts | 171° |
| 2026-05-08 18:43 | 48.18424 | 11.70342 | 25591 ft | 405 kts | 171° |
| 2026-05-08 18:43 | 48.15675 | 11.71248 | 25079 ft | 402 kts | 171° |
| 2026-05-08 18:43 | 48.12945 | 11.72157 | 24570 ft | 398 kts | 171° |
| 2026-05-08 18:44 | 48.10238 | 11.73069 | 24065 ft | 395 kts | 170° |
| 2026-05-08 18:44 | 48.07594 | 11.73966 | 23566 ft | 392 kts | 170° |
| 2026-05-08 18:44 | 48.04926 | 11.74876 | 23075 ft | 388 kts | 170° |
| 2026-05-08 18:44 | 48.02287 | 11.75777 | 22586 ft | 385 kts | 170° |
| 2026-05-08 18:45 | 47.99693 | 11.76663 | 22103 ft | 383 kts | 170° |
| 2026-05-08 18:45 | 47.97104 | 11.77547 | 21617 ft | 380 kts | 169° |
| 2026-05-08 18:45 | 47.94549 | 11.78417 | 21128 ft | 377 kts | 169° |
| 2026-05-08 18:45 | 47.91971 | 11.79235 | 20654 ft | 374 kts | 173° |
| 2026-05-08 18:46 | 47.89404 | 11.79714 | 20170 ft | 370 kts | 178° |
| 2026-05-08 18:46 | 47.86799 | 11.79822 | 19712 ft | 367 kts | 184° |
| 2026-05-08 18:46 | 47.84250 | 11.79697 | 19234 ft | 365 kts | 184° |
| 2026-05-08 18:46 | 47.81704 | 11.79541 | 18757 ft | 364 kts | 185° |
| 2026-05-08 18:47 | 47.79193 | 11.79389 | 18301 ft | 362 kts | 184° |
| 2026-05-08 18:47 | 47.76664 | 11.79240 | 17815 ft | 362 kts | 184° |
| 2026-05-08 18:47 | 47.74141 | 11.79094 | 17337 ft | 360 kts | 184° |
| 2026-05-08 18:47 | 47.71634 | 11.79073 | 16854 ft | 359 kts | 178° |
| 2026-05-08 18:48 | 47.69161 | 11.79614 | 16418 ft | 359 kts | 168° |
| 2026-05-08 18:48 | 47.66794 | 11.80699 | 15975 ft | 359 kts | 162° |
| 2026-05-08 18:48 | 47.64436 | 11.82013 | 15494 ft | 359 kts | 160° |
| 2026-05-08 18:48 | 47.62139 | 11.83323 | 15024 ft | 357 kts | 160° |
| 2026-05-08 18:49 | 47.59802 | 11.84653 | 14560 ft | 356 kts | 160° |
| 2026-05-08 18:49 | 47.57494 | 11.85957 | 14096 ft | 354 kts | 160° |
| 2026-05-08 18:49 | 47.55199 | 11.87244 | 13629 ft | 351 kts | 160° |
| 2026-05-08 18:49 | 47.52936 | 11.88512 | 13176 ft | 349 kts | 160° |
| 2026-05-08 18:50 | 47.50666 | 11.89780 | 12730 ft | 347 kts | 160° |
| 2026-05-08 18:50 | 47.48423 | 11.91030 | 12258 ft | 345 kts | 160° |
| 2026-05-08 18:50 | 47.46178 | 11.92280 | 11796 ft | 343 kts | 160° |
| 2026-05-08 18:50 | 47.43896 | 11.93196 | 11289 ft | 339 kts | 177° |
| 2026-05-08 18:51 | 47.41600 | 11.92673 | 10846 ft | 335 kts | 202° |
| 2026-05-08 18:51 | 47.39592 | 11.91035 | 10625 ft | 323 kts | 212° |
| 2026-05-08 18:51 | 47.37692 | 11.89301 | 10463 ft | 311 kts | 211° |
| 2026-05-08 18:51 | 47.35884 | 11.87670 | 10304 ft | 299 kts | 211° |
| 2026-05-08 18:52 | 47.34193 | 11.85929 | 10130 ft | 290 kts | 225° |
| 2026-05-08 18:52 | 47.33061 | 11.83547 | 9772 ft | 288 kts | 246° |
| 2026-05-08 18:52 | 47.32498 | 11.80739 | 9388 ft | 283 kts | 259° |
| 2026-05-08 18:52 | 47.32199 | 11.77885 | 8918 ft | 278 kts | 261° |
| 2026-05-08 18:53 | 47.31896 | 11.75116 | 8461 ft | 273 kts | 259° |
| 2026-05-08 18:53 | 47.31543 | 11.72391 | 8023 ft | 267 kts | 258° |
| 2026-05-08 18:53 | 47.31163 | 11.69746 | 7581 ft | 262 kts | 258° |
| 2026-05-08 18:53 | 47.30772 | 11.67143 | 7147 ft | 258 kts | 257° |
| 2026-05-08 18:54 | 47.30382 | 11.64569 | 6707 ft | 254 kts | 258° |
| 2026-05-08 18:54 | 47.30006 | 11.62082 | 6298 ft | 249 kts | 258° |
| 2026-05-08 18:54 | 47.29637 | 11.59628 | 5884 ft | 242 kts | 258° |
| 2026-05-08 18:54 | 47.29277 | 11.57226 | 5478 ft | 235 kts | 258° |
| 2026-05-08 18:55 | 47.28598 | 11.52663 | 4716 ft | 221 kts | 259° |
| 2026-05-08 18:55 | 47.28277 | 11.50497 | 4425 ft | 210 kts | 258° |
| 2026-05-08 18:55 | 47.27974 | 11.48452 | 4065 ft | 201 kts | 258° |
| 2026-05-08 18:56 | 47.27679 | 11.46459 | 3712 ft | 198 kts | 259° |
| 2026-05-08 18:56 | 47.27271 | 11.44561 | 3367 ft | 197 kts | 243° |
| 2026-05-08 18:56 | 47.26544 | 11.42854 | 3362 ft | 198 kts | 236° |
| 2026-05-08 18:56 | 47.25753 | 11.41194 | 3381 ft | 191 kts | 235° |
| 2026-05-08 18:57 | 47.25001 | 11.39645 | 3404 ft | 185 kts | 234° |
| 2026-05-08 18:57 | 47.24534 | 11.38643 | 3508 ft | 169 kts | 241° |
| 2026-05-08 18:57 | 47.24209 | 11.36630 | 3694 ft | 145 kts | 266° |
| 2026-05-08 18:57 | 47.24142 | 11.35158 | 3755 ft | 144 kts | 268° |
| 2026-05-08 18:58 | 47.24089 | 11.33676 | 3762 ft | 143 kts | 267° |
| 2026-05-08 18:58 | 47.24038 | 11.32200 | 3765 ft | 143 kts | 266° |
| 2026-05-08 18:58 | 47.23939 | 11.30740 | 3767 ft | 143 kts | 263° |
| 2026-05-08 18:58 | 47.23825 | 11.29295 | 3677 ft | 143 kts | 265° |
| 2026-05-08 18:59 | 47.23777 | 11.27858 | 3423 ft | 137 kts | 278° |
| 2026-05-08 18:59 | 47.24220 | 11.26707 | 3114 ft | 133 kts | 335° |
| 2026-05-08 18:59 | 47.25085 | 11.26690 | 2844 ft | 130 kts | 36° |
| 2026-05-08 18:59 | 47.25533 | 11.27749 | 2515 ft | 124 kts | 85° |
| 2026-05-08 19:00 | 47.25537 | 11.28601 | 2478 ft | 124 kts | 89° |
| 2026-05-08 19:00 | 47.25601 | 11.30306 | 2380 ft | 125 kts | 82° |
| 2026-05-08 19:00 | 47.25715 | 11.31573 | 2196 ft | 125 kts | 79° |
| 2026-05-08 19:00 | 47.25856 | 11.32833 | 2028 ft | 124 kts | 83° |
| 2026-05-08 19:01 | 47.25983 | 11.34060 | 1927 ft | 113 kts | 81° |
| 2026-05-08 19:01 | 47.26085 | 11.34991 | 1918 ft | 68 kts | 81° |
| 2026-05-08 19:01 | 47.26140 | 11.35511 | 1912 ft | 38 kts | 80° |
| 2026-05-08 19:01 | 47.26129 | 11.35698 | 1912 ft | 11 kts | 26° |
| 2026-05-08 19:02 | 47.26153 | 11.35608 | 1912 ft | 13 kts | 256° |
| 2026-05-08 19:02 | 47.26135 | 11.35470 | 1912 ft | 13 kts | 260° |
| 2026-05-08 19:02 | 47.26121 | 11.35336 | 1915 ft | 12 kts | 260° |
| 2026-05-08 19:02 | 47.26069 | 11.35251 | 1915 ft | 13 kts | 168° |
| 2026-05-08 19:03 | 47.25975 | 11.35278 | 1915 ft | 14 kts | 170° |
| 2026-05-08 19:03 | 47.25893 | 11.35242 | 1915 ft | 14 kts | 258° |
| 2026-05-08 19:03 | 47.25885 | 11.35131 | 1915 ft | 5 kts | 257° |
| 2026-05-08 19:03 | 47.25858 | 11.35110 | 1915 ft | 1 kts | 165° |
| 2026-05-08 19:04 | 47.25838 | 11.35117 | 1914 ft | 4 kts | 171° |
| 2026-05-08 19:04 | 47.25827 | 11.35119 | 1914 ft | 0 kts | 171° |